Latest METARs, TAFs and NOTAMs for CYFB


---------------------------------------------------------------------------
	(OBSERVATIONS)
CYFB 242200Z 33018KT 30SM SCT060 BKN087 05/01 A2985 RMK SC3AC4
    SLP111=
CYFB 242100Z 32016G22KT 30SM FEW025 BKN058 05/01 A2983 RMK SC2SC5
    SLP106=
CYFB 242000Z 32017G23KT 30SM SCT017 BKN052 05/01 A2982 RMK SC3SC4
    SLP102=
---------------------------------------------------------------------------
	(FC)
Sorry, FC For CYFB Not Found
---------------------------------------------------------------------------
	(TERMINAL AREA FORECAST)
CYFB 241738Z 2418/2518 33015KT P6SM SCT010 BKN040
    TEMPO 2418/2504 BKN010
    FM250400 33008KT P6SM BKN015
    TEMPO 2504/2515 BKN008
    FM251500 24008KT P6SM SCT010 OVC040
    TEMPO 2515/2518 5SM -RA BR OVC010
    RMK NXT FCST BY 250000Z=
---------------------------------------------------------------------------
	(NOTAMS)


CYFB 06/022 CYFB AMEND PUB: AD CHART: DEP PROC: RWY 34 TO READ:
    - 1/2 - CLIMB HDG 345 TO 1000 BPOC. 08 JUN 20:23 2018 UNTIL
    PERM. CREATED: 08 JUN 20:23 2018

CYFB 06/042 CYFB BLASTING ACT RADIUS 328 FT CENTER 634523N 683143W
    (APRX 0.7 NM ESE AD) SFC TO 12 FT AGL JUN 15-JUL 09 1345-1415
    2045-2115. 15 JUN 13:45 2018 UNTIL 09 JUL 21:15 2018. CREATED:
    13 JUN 15:31 2018

CYFB B2533/18 AMEND PUB: AD CHART: DEP PROC: RWY 34 TO READ:
    - 1/2 - CLIMB HDG 345 TO 1000 BPOC. 08 JUN 20:22 2018 UNTIL
    PERM. CREATED: 08 JUN 20:23 2018

CYFB B2626/18 BLASTING ACT RADIUS 328 FT CENTER 634523N 683143W
    (APRX 0.7 NM ESE AD). SFC - 12FT AGL, JUN 15-JUL 09 1345-1415
    2045-2115, 15 JUN 13:45 2018 UNTIL 09 JUL 21:15 2018. CREATED:
    13 JUN 15:32 2018

---------------------------------------------------------------------------